sensor_id;sensor_type;location;lat;lon;timestamp;pressure;altitude;pressure_sealevel;temperature;humidity
63399;BME280;49533;-34.520;150.798;2023-04-25T00:02:24;101946.13;;;22.72;58.11
63399;BME280;49533;-34.520;150.798;2023-04-25T00:04:52;101955.34;;;22.76;57.96
63399;BME280;49533;-34.520;150.798;2023-04-25T00:07:20;101948.63;;;22.77;57.63
63399;BME280;49533;-34.520;150.798;2023-04-25T00:09:47;101914.84;;;22.55;57.86
63399;BME280;49533;-34.520;150.798;2023-04-25T00:12:14;101928.34;;;22.73;57.54
63399;BME280;49533;-34.520;150.798;2023-04-25T00:14:42;101932.91;;;22.81;57.73
63399;BME280;49533;-34.520;150.798;2023-04-25T00:17:10;101930.41;;;22.92;57.39
63399;BME280;49533;-34.520;150.798;2023-04-25T00:19:37;101940.44;;;22.96;57.75
63399;BME280;49533;-34.520;150.798;2023-04-25T00:22:04;101914.84;;;22.87;57.25
63399;BME280;49533;-34.520;150.798;2023-04-25T00:24:31;101931.50;;;23.03;57.09
63399;BME280;49533;-34.520;150.798;2023-04-25T00:26:58;101907.78;;;22.90;57.00
63399;BME280;49533;-34.520;150.798;2023-04-25T00:29:26;101933.66;;;23.10;56.79
63399;BME280;49533;-34.520;150.798;2023-04-25T00:31:53;101884.09;;;22.92;57.08
63399;BME280;49533;-34.520;150.798;2023-04-25T00:34:20;101874.44;;;22.86;56.70
63399;BME280;49533;-34.520;150.798;2023-04-25T00:36:47;101885.56;;;23.02;56.19
63399;BME280;49533;-34.520;150.798;2023-04-25T00:39:15;101884.47;;;23.07;55.88
63399;BME280;49533;-34.520;150.798;2023-04-25T00:41:43;101895.88;;;23.21;55.35
63399;BME280;49533;-34.520;150.798;2023-04-25T00:44:11;101908.41;;;23.31;55.60
63399;BME280;49533;-34.520;150.798;2023-04-25T00:46:39;101871.13;;;23.12;55.32
63399;BME280;49533;-34.520;150.798;2023-04-25T00:49:07;101871.06;;;23.09;55.42
63399;BME280;49533;-34.520;150.798;2023-04-25T00:51:34;101858.34;;;23.08;54.46
63399;BME280;49533;-34.520;150.798;2023-04-25T00:54:02;101871.38;;;23.23;54.73
63399;BME280;49533;-34.520;150.798;2023-04-25T00:56:29;101898.78;;;23.44;54.99
63399;BME280;49533;-34.520;150.798;2023-04-25T00:58:57;101865.56;;;23.28;55.21
63399;BME280;49533;-34.520;150.798;2023-04-25T01:01:24;101896.13;;;23.48;54.76
63399;BME280;49533;-34.520;150.798;2023-04-25T01:03:53;101845.34;;;23.28;54.49
63399;BME280;49533;-34.520;150.798;2023-04-25T01:06:21;101880.34;;;23.52;54.25
63399;BME280;49533;-34.520;150.798;2023-04-25T01:08:48;101872.09;;;23.55;54.26
63399;BME280;49533;-34.520;150.798;2023-04-25T01:11:16;101848.81;;;23.40;54.38
63399;BME280;49533;-34.520;150.798;2023-04-25T01:13:44;101809.53;;;23.19;53.99
63399;BME280;49533;-34.520;150.798;2023-04-25T01:16:11;101838.50;;;23.41;53.83
63399;BME280;49533;-34.520;150.798;2023-04-25T01:18:39;101851.34;;;23.49;53.47
63399;BME280;49533;-34.520;150.798;2023-04-25T01:21:09;101864.00;;;23.66;53.49
63399;BME280;49533;-34.520;150.798;2023-04-25T01:23:38;101864.44;;;23.68;53.97
63399;BME280;49533;-34.520;150.798;2023-04-25T01:26:08;101828.06;;;23.54;53.60
63399;BME280;49533;-34.520;150.798;2023-04-25T01:28:36;101840.38;;;23.72;53.32
63399;BME280;49533;-34.520;150.798;2023-04-25T01:31:04;101813.63;;;23.44;53.52
63399;BME280;49533;-34.520;150.798;2023-04-25T01:33:32;101837.69;;;23.76;53.17
63399;BME280;49533;-34.520;150.798;2023-04-25T01:35:59;101755.88;;;23.31;52.93
63399;BME280;49533;-34.520;150.798;2023-04-25T01:38:26;101822.72;;;23.80;53.45
63399;BME280;49533;-34.520;150.798;2023-04-25T01:40:54;101768.22;;;23.53;52.96
63399;BME280;49533;-34.520;150.798;2023-04-25T01:43:22;101796.56;;;23.81;53.14
63399;BME280;49533;-34.520;150.798;2023-04-25T01:45:50;101780.84;;;23.70;53.47
63399;BME280;49533;-34.520;150.798;2023-04-25T01:48:18;101798.59;;;23.84;52.69
63399;BME280;49533;-34.520;150.798;2023-04-25T01:50:45;101762.16;;;23.66;52.54
63399;BME280;49533;-34.520;150.798;2023-04-25T01:53:13;101767.50;;;23.75;52.63
63399;BME280;49533;-34.520;150.798;2023-04-25T01:55:41;101782.03;;;23.88;52.69
63399;BME280;49533;-34.520;150.798;2023-04-25T01:58:08;101732.31;;;23.60;52.96
63399;BME280;49533;-34.520;150.798;2023-04-25T02:00:36;101749.97;;;23.71;52.71
63399;BME280;49533;-34.520;150.798;2023-04-25T02:03:05;101729.25;;;23.65;52.67
63399;BME280;49533;-34.520;150.798;2023-04-25T02:05:36;101767.47;;;23.95;52.65
63399;BME280;49533;-34.520;150.798;2023-04-25T02:08:06;101765.13;;;23.97;52.86
63399;BME280;49533;-34.520;150.798;2023-04-25T02:10:34;101747.97;;;23.91;52.70
63399;BME280;49533;-34.520;150.798;2023-04-25T02:13:02;101733.16;;;23.83;52.22
63399;BME280;49533;-34.520;150.798;2023-04-25T02:15:30;101744.16;;;23.99;52.63
63399;BME280;49533;-34.520;150.798;2023-04-25T02:17:58;101720.16;;;23.87;52.04
63399;BME280;49533;-34.520;150.798;2023-04-25T02:20:26;101700.19;;;23.78;51.97
63399;BME280;49533;-34.520;150.798;2023-04-25T02:22:54;101528.38;;;22.62;51.91
63399;BME280;49533;-34.520;150.798;2023-04-25T02:25:22;101697.84;;;23.80;52.00
63399;BME280;49533;-34.520;150.798;2023-04-25T02:27:49;101707.16;;;23.92;52.12
63399;BME280;49533;-34.520;150.798;2023-04-25T02:30:17;101706.03;;;23.96;52.01
63399;BME280;49533;-34.520;150.798;2023-04-25T02:32:45;101702.47;;;23.96;52.16
63399;BME280;49533;-34.520;150.798;2023-04-25T02:35:12;101686.44;;;23.85;52.35
63399;BME280;49533;-34.520;150.798;2023-04-25T02:37:40;101666.78;;;23.75;52.14
63399;BME280;49533;-34.520;150.798;2023-04-25T02:40:07;101682.28;;;23.99;52.09
63399;BME280;49533;-34.520;150.798;2023-04-25T02:42:35;101653.75;;;23.75;51.81
63399;BME280;49533;-34.520;150.798;2023-04-25T02:45:03;101665.50;;;23.92;51.77
63399;BME280;49533;-34.520;150.798;2023-04-25T02:47:31;101667.72;;;24.05;51.91
63399;BME280;49533;-34.520;150.798;2023-04-25T02:49:58;101637.31;;;23.90;52.04
63399;BME280;49533;-34.520;150.798;2023-04-25T02:52:25;101635.34;;;23.90;51.68
63399;BME280;49533;-34.520;150.798;2023-04-25T02:54:52;101645.41;;;23.98;51.08
63399;BME280;49533;-34.520;150.798;2023-04-25T02:57:19;101649.09;;;24.06;51.98
63399;BME280;49533;-34.520;150.798;2023-04-25T02:59:47;101651.00;;;24.02;51.03
63399;BME280;49533;-34.520;150.798;2023-04-25T03:02:14;101603.91;;;23.82;51.87
63399;BME280;49533;-34.520;150.798;2023-04-25T03:04:41;101585.19;;;23.76;51.59
63399;BME280;49533;-34.520;150.798;2023-04-25T03:07:09;101625.66;;;24.03;51.79
63399;BME280;49533;-34.520;150.798;2023-04-25T03:09:36;101583.63;;;23.78;51.42
63399;BME280;49533;-34.520;150.798;2023-04-25T03:12:03;101616.94;;;24.05;51.56
63399;BME280;49533;-34.520;150.798;2023-04-25T03:14:31;101612.56;;;24.04;51.70
63399;BME280;49533;-34.520;150.798;2023-04-25T03:16:58;101603.38;;;24.00;51.83
63399;BME280;49533;-34.520;150.798;2023-04-25T03:19:26;101579.78;;;23.86;51.38
63399;BME280;49533;-34.520;150.798;2023-04-25T03:21:53;101601.91;;;24.06;51.54
63399;BME280;49533;-34.520;150.798;2023-04-25T03:24:21;101593.94;;;24.04;51.65
63399;BME280;49533;-34.520;150.798;2023-04-25T03:26:48;101579.84;;;23.90;51.67
63399;BME280;49533;-34.520;150.798;2023-04-25T03:29:15;101597.16;;;24.06;51.64
63399;BME280;49533;-34.520;150.798;2023-04-25T03:31:42;101596.34;;;24.06;52.10
63399;BME280;49533;-34.520;150.798;2023-04-25T03:34:09;101596.75;;;24.08;52.12
63399;BME280;49533;-34.520;150.798;2023-04-25T03:36:36;101590.84;;;24.09;52.07
63399;BME280;49533;-34.520;150.798;2023-04-25T03:39:03;101546.91;;;23.89;52.55
63399;BME280;49533;-34.520;150.798;2023-04-25T03:41:30;101521.28;;;23.72;52.23
63399;BME280;49533;-34.520;150.798;2023-04-25T03:43:58;101586.16;;;24.14;52.59
63399;BME280;49533;-34.520;150.798;2023-04-25T03:46:25;101558.94;;;23.96;52.50
63399;BME280;49533;-34.520;150.798;2023-04-25T03:48:52;101589.72;;;24.14;52.74
63399;BME280;49533;-34.520;150.798;2023-04-25T03:51:19;101579.06;;;24.16;52.79
63399;BME280;49533;-34.520;150.798;2023-04-25T03:53:47;101548.25;;;23.98;52.92
63399;BME280;49533;-34.520;150.798;2023-04-25T03:56:15;101572.69;;;24.16;52.90
63399;BME280;49533;-34.520;150.798;2023-04-25T03:58:42;101543.50;;;23.99;53.16
63399;BME280;49533;-34.520;150.798;2023-04-25T04:01:09;101580.69;;;24.21;53.10
63399;BME280;49533;-34.520;150.798;2023-04-25T04:03:37;101562.22;;;24.05;52.91
63399;BME280;49533;-34.520;150.798;2023-04-25T04:06:05;101526.31;;;23.90;52.99
63399;BME280;49533;-34.520;150.798;2023-04-25T04:08:33;101569.50;;;24.14;53.15
63399;BME280;49533;-34.520;150.798;2023-04-25T04:11:00;101574.41;;;24.24;53.29
63399;BME280;49533;-34.520;150.798;2023-04-25T04:13:28;101567.19;;;24.19;53.01
63399;BME280;49533;-34.520;150.798;2023-04-25T04:15:56;101530.38;;;23.96;52.83
63399;BME280;49533;-34.520;150.798;2023-04-25T04:18:24;101526.78;;;23.95;52.79
63399;BME280;49533;-34.520;150.798;2023-04-25T04:20:51;101532.44;;;24.02;53.03
63399;BME280;49533;-34.520;150.798;2023-04-25T04:23:19;101490.88;;;23.79;52.92
63399;BME280;49533;-34.520;150.798;2023-04-25T04:25:47;101560.56;;;24.27;52.97
63399;BME280;49533;-34.520;150.798;2023-04-25T04:28:14;101551.44;;;24.27;53.13
63399;BME280;49533;-34.520;150.798;2023-04-25T04:30:42;101540.00;;;24.05;53.21
63399;BME280;49533;-34.520;150.798;2023-04-25T04:33:13;101544.91;;;24.16;53.02
63399;BME280;49533;-34.520;150.798;2023-04-25T04:35:41;101546.56;;;24.20;52.85
63399;BME280;49533;-34.520;150.798;2023-04-25T04:38:09;101546.47;;;24.13;53.04
63399;BME280;49533;-34.520;150.798;2023-04-25T04:40:37;101548.91;;;24.18;52.95
63399;BME280;49533;-34.520;150.798;2023-04-25T04:43:04;101551.97;;;24.09;52.78
63399;BME280;49533;-34.520;150.798;2023-04-25T04:45:35;101454.47;;;23.58;53.09
63399;BME280;49533;-34.520;150.798;2023-04-25T04:48:03;101540.06;;;24.09;53.02
63399;BME280;49533;-34.520;150.798;2023-04-25T04:50:31;101511.41;;;24.01;53.15
63399;BME280;49533;-34.520;150.798;2023-04-25T04:52:59;101543.03;;;24.23;53.42
63399;BME280;49533;-34.520;150.798;2023-04-25T04:55:26;101513.75;;;23.99;53.14
63399;BME280;49533;-34.520;150.798;2023-04-25T04:57:53;101517.81;;;24.05;53.31
63399;BME280;49533;-34.520;150.798;2023-04-25T05:00:21;101523.34;;;24.05;53.08
63399;BME280;49533;-34.520;150.798;2023-04-25T05:02:48;101525.78;;;24.07;53.30
63399;BME280;49533;-34.520;150.798;2023-04-25T05:05:15;101549.78;;;24.22;53.31
63399;BME280;49533;-34.520;150.798;2023-04-25T05:07:42;101553.81;;;24.28;53.23
63399;BME280;49533;-34.520;150.798;2023-04-25T05:10:10;101506.19;;;23.96;53.09
63399;BME280;49533;-34.520;150.798;2023-04-25T05:12:37;101558.22;;;24.29;53.38
63399;BME280;49533;-34.520;150.798;2023-04-25T05:15:05;101550.22;;;24.24;53.19
63399;BME280;49533;-34.520;150.798;2023-04-25T05:17:32;101557.41;;;24.29;53.50
63399;BME280;49533;-34.520;150.798;2023-04-25T05:19:59;101523.34;;;24.05;53.33
63399;BME280;49533;-34.520;150.798;2023-04-25T05:22:26;101555.88;;;24.32;53.66
63399;BME280;49533;-34.520;150.798;2023-04-25T05:24:53;101555.03;;;24.31;53.55
63399;BME280;49533;-34.520;150.798;2023-04-25T05:27:21;101559.44;;;24.32;53.73
63399;BME280;49533;-34.520;150.798;2023-04-25T05:29:48;101509.00;;;24.00;53.53
63399;BME280;49533;-34.520;150.798;2023-04-25T05:32:15;101546.25;;;24.25;53.56
63399;BME280;49533;-34.520;150.798;2023-04-25T05:34:42;101510.31;;;24.06;53.41
63399;BME280;49533;-34.520;150.798;2023-04-25T05:37:10;101557.09;;;24.34;54.01
63399;BME280;49533;-34.520;150.798;2023-04-25T05:39:37;101555.53;;;24.37;53.62
63399;BME280;49533;-34.520;150.798;2023-04-25T05:42:04;101518.66;;;24.09;53.58
63399;BME280;49533;-34.520;150.798;2023-04-25T05:44:31;101550.72;;;24.34;53.72
63399;BME280;49533;-34.520;150.798;2023-04-25T05:46:58;101528.31;;;24.19;53.63
63399;BME280;49533;-34.520;150.798;2023-04-25T05:49:25;101544.34;;;24.33;53.17
63399;BME280;49533;-34.520;150.798;2023-04-25T05:51:53;101513.91;;;24.10;53.61
63399;BME280;49533;-34.520;150.798;2023-04-25T05:54:20;101548.31;;;24.32;53.81
63399;BME280;49533;-34.520;150.798;2023-04-25T05:56:47;101551.91;;;24.33;53.88
63399;BME280;49533;-34.520;150.798;2023-04-25T05:59:15;101541.91;;;24.28;53.82
63399;BME280;49533;-34.520;150.798;2023-04-25T06:01:42;101554.31;;;24.34;53.64
63399;BME280;49533;-34.520;150.798;2023-04-25T06:04:09;101544.25;;;24.26;53.30
63399;BME280;49533;-34.520;150.798;2023-04-25T06:06:36;101557.09;;;24.34;53.63
63399;BME280;49533;-34.520;150.798;2023-04-25T06:09:03;101568.56;;;24.33;53.51
63399;BME280;49533;-34.520;150.798;2023-04-25T06:11:31;101550.22;;;24.24;53.40
63399;BME280;49533;-34.520;150.798;2023-04-25T06:13:58;101543.38;;;24.18;53.20
63399;BME280;49533;-34.520;150.798;2023-04-25T06:16:25;101569.75;;;24.32;53.28
63399;BME280;49533;-34.520;150.798;2023-04-25T06:18:52;101514.56;;;24.00;53.18
63399;BME280;49533;-34.520;150.798;2023-04-25T06:21:19;101572.88;;;24.30;53.11
63399;BME280;49533;-34.520;150.798;2023-04-25T06:23:47;101540.00;;;24.05;53.15
63399;BME280;49533;-34.520;150.798;2023-04-25T06:26:14;101572.69;;;24.16;52.91
63399;BME280;49533;-34.520;150.798;2023-04-25T06:28:41;101581.53;;;24.25;53.02
63399;BME280;49533;-34.520;150.798;2023-04-25T06:31:08;101579.13;;;24.23;53.46
63399;BME280;49533;-34.520;150.798;2023-04-25T06:33:36;101566.34;;;24.15;53.35
63399;BME280;49533;-34.520;150.798;2023-04-25T06:36:03;101575.53;;;24.19;53.14
63399;BME280;49533;-34.520;150.798;2023-04-25T06:38:31;101579.06;;;24.16;53.28
63399;BME280;49533;-34.520;150.798;2023-04-25T06:40:58;101552.19;;;23.97;53.25
63399;BME280;49533;-34.520;150.798;2023-04-25T06:43:25;101562.97;;;24.02;53.25
63399;BME280;49533;-34.520;150.798;2023-04-25T06:45:52;101536.56;;;23.85;53.25
63399;BME280;49533;-34.520;150.798;2023-04-25T06:48:19;101532.56;;;23.83;53.24
63399;BME280;49533;-34.520;150.798;2023-04-25T06:50:46;101580.94;;;24.08;53.15
63399;BME280;49533;-34.520;150.798;2023-04-25T06:53:14;101572.50;;;24.01;53.29
63399;BME280;49533;-34.520;150.798;2023-04-25T06:55:41;101569.97;;;23.93;53.14
63399;BME280;49533;-34.520;150.798;2023-04-25T06:58:08;101591.53;;;24.03;53.25
63399;BME280;49533;-34.520;150.798;2023-04-25T07:00:35;101580.75;;;23.98;53.20
63399;BME280;49533;-34.520;150.798;2023-04-25T07:03:03;101596.69;;;24.01;53.39
63399;BME280;49533;-34.520;150.798;2023-04-25T07:05:30;101596.09;;;23.88;53.43
63399;BME280;49533;-34.520;150.798;2023-04-25T07:07:58;101605.72;;;23.98;53.06
63399;BME280;49533;-34.520;150.798;2023-04-25T07:10:25;101614.81;;;23.95;53.33
63399;BME280;49533;-34.520;150.798;2023-04-25T07:12:52;101616.78;;;23.94;53.10
63399;BME280;49533;-34.520;150.798;2023-04-25T07:15:19;101560.88;;;23.46;53.13
63399;BME280;49533;-34.520;150.798;2023-04-25T07:17:46;101587.94;;;23.53;53.07
63399;BME280;49533;-34.520;150.798;2023-04-25T07:20:13;101589.69;;;23.41;53.20
63399;BME280;49533;-34.520;150.798;2023-04-25T07:22:40;101633.16;;;23.57;53.61
63399;BME280;49533;-34.520;150.798;2023-04-25T07:25:08;101628.94;;;23.63;53.51
63399;BME280;49533;-34.520;150.798;2023-04-25T07:27:35;101632.13;;;23.65;53.26
63399;BME280;49533;-34.520;150.798;2023-04-25T07:30:03;101615.41;;;23.61;53.48
63399;BME280;49533;-34.520;150.798;2023-04-25T07:32:30;101648.09;;;23.72;53.32
63399;BME280;49533;-34.520;150.798;2023-04-25T07:34:58;101575.34;;;23.36;53.33
63399;BME280;49533;-34.520;150.798;2023-04-25T07:37:25;101628.13;;;23.62;53.25
63399;BME280;49533;-34.520;150.798;2023-04-25T07:39:53;101642.66;;;23.75;53.37
63399;BME280;49533;-34.520;150.798;2023-04-25T07:42:20;101524.72;;;22.96;53.28
63399;BME280;49533;-34.520;150.798;2023-04-25T07:44:47;101630.59;;;23.68;52.89
63399;BME280;49533;-34.520;150.798;2023-04-25T07:47:14;101647.44;;;23.78;53.14
63399;BME280;49533;-34.520;150.798;2023-04-25T07:49:41;101651.38;;;23.77;53.24
63399;BME280;49533;-34.520;150.798;2023-04-25T07:52:08;101650.44;;;23.70;53.29
63399;BME280;49533;-34.520;150.798;2023-04-25T07:54:35;101613.63;;;23.50;53.25
63399;BME280;49533;-34.520;150.798;2023-04-25T07:57:03;101664.09;;;23.78;53.26
63399;BME280;49533;-34.520;150.798;2023-04-25T07:59:32;101657.69;;;23.74;53.13
63399;BME280;49533;-34.520;150.798;2023-04-25T08:02:00;101658.56;;;23.78;53.15
63399;BME280;49533;-34.520;150.798;2023-04-25T08:04:28;101658.06;;;23.73;53.11
63399;BME280;49533;-34.520;150.798;2023-04-25T08:06:56;101629.53;;;23.53;53.23
63399;BME280;49533;-34.520;150.798;2023-04-25T08:09:24;101630.28;;;23.50;53.01
63399;BME280;49533;-34.520;150.798;2023-04-25T08:11:51;101642.72;;;23.59;53.30
63399;BME280;49533;-34.520;150.798;2023-04-25T08:14:18;101672.78;;;23.77;53.02
63399;BME280;49533;-34.520;150.798;2023-04-25T08:16:46;101657.09;;;23.65;53.28
63399;BME280;49533;-34.520;150.798;2023-04-25T08:19:13;101667.19;;;23.73;53.34
63399;BME280;49533;-34.520;150.798;2023-04-25T08:21:40;101669.16;;;23.73;53.14
63399;BME280;49533;-34.520;150.798;2023-04-25T08:24:08;101655.44;;;23.60;53.19
63399;BME280;49533;-34.520;150.798;2023-04-25T08:26:35;101680.16;;;23.69;53.13
63399;BME280;49533;-34.520;150.798;2023-04-25T08:29:03;101684.53;;;23.70;53.21
63399;BME280;49533;-34.520;150.798;2023-04-25T08:31:31;101686.88;;;23.68;53.33
63399;BME280;49533;-34.520;150.798;2023-04-25T08:33:58;101699.56;;;23.69;52.98
63399;BME280;49533;-34.520;150.798;2023-04-25T08:36:26;101682.78;;;23.62;53.35
63399;BME280;49533;-34.520;150.798;2023-04-25T08:38:54;101584.97;;;22.99;53.22
63399;BME280;49533;-34.520;150.798;2023-04-25T08:41:22;101701.19;;;23.70;53.13
63399;BME280;49533;-34.520;150.798;2023-04-25T08:43:50;101703.59;;;23.72;52.86
63399;BME280;49533;-34.520;150.798;2023-04-25T08:46:18;101680.22;;;23.50;52.89
63399;BME280;49533;-34.520;150.798;2023-04-25T08:48:46;101709.97;;;23.72;53.24
63399;BME280;49533;-34.520;150.798;2023-04-25T08:51:22;101663.72;;;23.37;53.16
63399;BME280;49533;-34.520;150.798;2023-04-25T08:53:51;101712.66;;;23.69;53.26
63399;BME280;49533;-34.520;150.798;2023-04-25T08:56:19;101704.56;;;23.60;53.21
63399;BME280;49533;-34.520;150.798;2023-04-25T08:58:49;101689.69;;;23.49;53.23
63399;BME280;49533;-34.520;150.798;2023-04-25T09:01:18;101684.81;;;23.42;53.14
63399;BME280;49533;-34.520;150.798;2023-04-25T09:03:45;101721.22;;;23.60;53.39
63399;BME280;49533;-34.520;150.798;2023-04-25T09:06:13;101706.31;;;23.49;53.00
63399;BME280;49533;-34.520;150.798;2023-04-25T09:08:42;101665.41;;;23.22;53.11
63399;BME280;49533;-34.520;150.798;2023-04-25T09:11:10;101683.00;;;23.30;53.20
63399;BME280;49533;-34.520;150.798;2023-04-25T09:13:37;101693.06;;;23.38;53.07
63399;BME280;49533;-34.520;150.798;2023-04-25T09:16:04;101707.41;;;23.44;53.06
63399;BME280;49533;-34.520;150.798;2023-04-25T09:18:34;101724.59;;;23.50;53.25
63399;BME280;49533;-34.520;150.798;2023-04-25T09:21:09;101726.91;;;23.48;53.27
63399;BME280;49533;-34.520;150.798;2023-04-25T09:23:41;101679.56;;;23.17;53.27
63399;BME280;49533;-34.520;150.798;2023-04-25T09:26:08;101731.28;;;23.49;53.10
63399;BME280;49533;-34.520;150.798;2023-04-25T09:28:36;101720.03;;;23.41;53.08
63399;BME280;49533;-34.520;150.798;2023-04-25T09:31:04;101702.41;;;23.30;52.91
63399;BME280;49533;-34.520;150.798;2023-04-25T09:33:33;101722.81;;;23.41;52.96
63399;BME280;49533;-34.520;150.798;2023-04-25T09:36:05;101662.34;;;23.08;53.22
63399;BME280;49533;-34.520;150.798;2023-04-25T09:38:40;101679.50;;;23.14;53.25
63399;BME280;49533;-34.520;150.798;2023-04-25T09:41:08;101692.34;;;23.22;53.26
63399;BME280;49533;-34.520;150.798;2023-04-25T09:43:37;101728.00;;;23.43;53.07
63399;BME280;49533;-34.520;150.798;2023-04-25T09:46:09;101730.78;;;23.43;53.02
63399;BME280;49533;-34.520;150.798;2023-04-25T09:48:37;101682.13;;;23.07;52.90
63399;BME280;49533;-34.520;150.798;2023-04-25T09:51:08;101674.84;;;22.98;53.20
63399;BME280;49533;-34.520;150.798;2023-04-25T09:53:37;101712.09;;;23.20;53.08
63399;BME280;49533;-34.520;150.798;2023-04-25T09:56:06;101733.34;;;23.32;53.34
63399;BME280;49533;-34.520;150.798;2023-04-25T09:58:36;101731.59;;;23.24;53.13
63399;BME280;49533;-34.520;150.798;2023-04-25T10:01:05;101727.59;;;23.21;53.29
63399;BME280;49533;-34.520;150.798;2023-04-25T10:03:34;101740.63;;;23.21;53.30
63399;BME280;49533;-34.520;150.798;2023-04-25T10:06:04;101752.66;;;23.29;53.56
63399;BME280;49533;-34.520;150.798;2023-04-25T10:08:36;101749.09;;;23.28;53.34
63399;BME280;49533;-34.520;150.798;2023-04-25T10:11:05;101712.47;;;22.99;53.53
63399;BME280;49533;-34.520;150.798;2023-04-25T10:13:35;101734.94;;;23.14;53.48
63399;BME280;49533;-34.520;150.798;2023-04-25T10:16:04;101750.13;;;23.20;53.50
63399;BME280;49533;-34.520;150.798;2023-04-25T10:18:32;101641.66;;;22.47;53.73
63399;BME280;49533;-34.520;150.798;2023-04-25T10:21:01;101733.47;;;23.00;53.76
63399;BME280;49533;-34.520;150.798;2023-04-25T10:23:30;101752.81;;;23.16;53.83
63399;BME280;49533;-34.520;150.798;2023-04-25T10:25:58;101757.19;;;23.17;53.76
63399;BME280;49533;-34.520;150.798;2023-04-25T10:28:26;101697.16;;;22.70;53.74
63399;BME280;49533;-34.520;150.798;2023-04-25T10:31:01;101749.81;;;23.06;53.81
63399;BME280;49533;-34.520;150.798;2023-04-25T10:33:36;101761.06;;;23.13;53.79
63399;BME280;49533;-34.520;150.798;2023-04-25T10:36:15;101758.66;;;23.11;53.81
63399;BME280;49533;-34.520;150.798;2023-04-25T10:38:45;101757.03;;;23.10;53.76
63399;BME280;49533;-34.520;150.798;2023-04-25T10:41:14;101770.09;;;23.10;53.91
63399;BME280;49533;-34.520;150.798;2023-04-25T10:43:45;101728.31;;;22.83;53.94
63399;BME280;49533;-34.520;150.798;2023-04-25T10:46:22;101726.25;;;22.80;54.00
63399;BME280;49533;-34.520;150.798;2023-04-25T10:48:51;101775.94;;;23.05;53.94
63399;BME280;49533;-34.520;150.798;2023-04-25T10:51:23;101771.91;;;23.02;53.96
63399;BME280;49533;-34.520;150.798;2023-04-25T10:54:01;101737.31;;;22.80;54.10
63399;BME280;49533;-34.520;150.798;2023-04-25T10:56:31;101776.66;;;23.02;54.14
63399;BME280;49533;-34.520;150.798;2023-04-25T10:59:12;101771.84;;;22.98;53.90
63399;BME280;49533;-34.520;150.798;2023-04-25T11:01:51;101782.94;;;22.98;53.93
63399;BME280;49533;-34.520;150.798;2023-04-25T11:04:26;101757.16;;;22.82;54.21
63399;BME280;49533;-34.520;150.798;2023-04-25T11:07:23;101736.28;;;22.69;54.10
63399;BME280;49533;-34.520;150.798;2023-04-25T11:09:53;101737.03;;;22.66;54.15
63399;BME280;49533;-34.520;150.798;2023-04-25T11:12:20;101779.97;;;22.91;54.18
63399;BME280;49533;-34.520;150.798;2023-04-25T11:14:48;101758.25;;;22.77;54.25
63399;BME280;49533;-34.520;150.798;2023-04-25T11:17:15;101690.25;;;22.29;54.30
63399;BME280;49533;-34.520;150.798;2023-04-25T11:19:42;101734.81;;;22.55;54.25
63399;BME280;49533;-34.520;150.798;2023-04-25T11:22:10;101780.97;;;22.83;54.23
63399;BME280;49533;-34.520;150.798;2023-04-25T11:24:38;101774.53;;;22.79;54.34
63399;BME280;49533;-34.520;150.798;2023-04-25T11:27:06;101727.91;;;22.49;54.24
63399;BME280;49533;-34.520;150.798;2023-04-25T11:29:34;101781.25;;;22.78;54.46
63399;BME280;49533;-34.520;150.798;2023-04-25T11:32:01;101771.59;;;22.72;54.46
63399;BME280;49533;-34.520;150.798;2023-04-25T11:34:30;101738.19;;;22.49;54.31
63399;BME280;49533;-34.520;150.798;2023-04-25T11:37:00;101776.84;;;22.77;54.29
63399;BME280;49533;-34.520;150.798;2023-04-25T11:39:28;101769.88;;;22.67;54.44
63399;BME280;49533;-34.520;150.798;2023-04-25T11:41:55;101772.03;;;22.74;54.24
63399;BME280;49533;-34.520;150.798;2023-04-25T11:44:23;101707.69;;;22.29;54.60
63399;BME280;49533;-34.520;150.798;2023-04-25T11:46:51;101781.06;;;22.71;54.37
63399;BME280;49533;-34.520;150.798;2023-04-25T11:49:18;101734.44;;;22.41;54.54
63399;BME280;49533;-34.520;150.798;2023-04-25T11:51:47;101777.41;;;22.67;54.23
63399;BME280;49533;-34.520;150.798;2023-04-25T11:54:15;101773.47;;;22.68;54.49
63399;BME280;49533;-34.520;150.798;2023-04-25T11:56:44;101740.09;;;22.45;54.26
63399;BME280;49533;-34.520;150.798;2023-04-25T11:59:12;101771.06;;;22.66;54.28
63399;BME280;49533;-34.520;150.798;2023-04-25T12:01:41;101759.28;;;22.53;54.64
63399;BME280;49533;-34.520;150.798;2023-04-25T12:04:16;101771.25;;;22.57;54.54
63399;BME280;49533;-34.520;150.798;2023-04-25T12:06:45;101764.88;;;22.57;54.54
63399;BME280;49533;-34.520;150.798;2023-04-25T12:09:18;101749.66;;;22.47;54.59
63399;BME280;49533;-34.520;150.798;2023-04-25T12:11:48;101730.69;;;22.33;54.45
63399;BME280;49533;-34.520;150.798;2023-04-25T12:14:24;101768.38;;;22.54;54.35
63399;BME280;49533;-34.520;150.798;2023-04-25T12:16:56;101768.38;;;22.54;54.40
63399;BME280;49533;-34.520;150.798;2023-04-25T12:19:24;101711.06;;;22.23;54.58
63399;BME280;49533;-34.520;150.798;2023-04-25T12:21:52;101694.63;;;22.14;54.45
63399;BME280;49533;-34.520;150.798;2023-04-25T12:24:24;101751.69;;;22.50;54.68
63399;BME280;49533;-34.520;150.798;2023-04-25T12:27:04;101746.16;;;22.50;54.32